Mount Uniacke, Canada
Current Conditions -  °F | °C
As of 12:00 AM on Sunday 23 Nov 2014 (Local Time) from CYHZ Reporting Station
Broken Clouds Broken Clouds  
Wind Chill: -2°   Ceiling: 15000
Heat Index:   Visibility: 15mi
Dew Point:   Wind: 23mph
Humidity: 75%   Direction: 240°WSW
Pressure: 29.88"   Gusts: 32mph
Location:  44.88°N, 63.83°W
Report Text: CYHZ 230400Z 24020G28KT 15SM FEW070 BKN150 04/M00 A2988 RMK AC2AC4 SLP123
Loading
Personal Weather Stations






























Interactive Weather Map New forecast layout! Learn more

10-Day Weather Forecast

Advertisements
Track Severe Weather on mobile